Time;durP1;ratioP1;P1;durP2;ratioP2;P2;SDS_P1;SDS_P2;PMS_P1;PMS_P2;Temp;Humidity;BMP_temperature;BMP_pressure;BME280_temperature;BME280_humidity;BME280_pressure;Samples;Min_cycle;Max_cycle;Signal;HPM_P1;HPM_P2
2022/10/16 00:13:56;;;;;;;1.92;0.93;;;18.20;99.90;;;;;;6163275;28;20524;-81
2022/10/16 00:17:22;;;;;;;8.57;1.23;;;18.20;99.90;;;;;;6181032;28;20377;-82
2022/10/16 00:20:36;;;;;;;2.03;1.13;;;18.10;99.90;;;;;;6190719;28;20046;-82
2022/10/16 01:08:58;;;;;;;7.07;1.00;;;18.10;99.90;;;;;;6178422;28;20533;-82
2022/10/16 01:52:49;;;;;;;3.65;1.30;;;17.50;99.90;;;;;;5985146;22;20203;-80
2022/10/16 01:56:09;;;;;;;3.53;1.08;;;17.40;99.90;;;;;;6238925;28;20104;-82
2022/10/16 02:03:37;;;;;;;2.65;1.10;;;17.80;99.90;;;;;;6163194;28;20041;-81
2022/10/16 03:22:23;;;;;;;7.15;1.30;;;16.80;99.90;;;;;;6217317;28;20053;-81
2022/10/16 03:25:34;;;;;;;17.02;1.60;;;16.90;99.90;;;;;;6194273;28;20046;-81
2022/10/16 03:32:15;;;;;;;10.80;1.40;;;16.70;99.90;;;;;;6191719;28;20058;-81
2022/10/16 03:44:10;;;;;;;9.80;1.40;;;16.70;99.90;;;;;;6202926;23;20427;-81
2022/10/16 03:47:37;;;;;;;7.82;1.10;;;16.90;99.90;;;;;;6227452;28;20069;-81
2022/10/16 03:50:55;;;;;;;10.05;1.45;;;16.80;99.90;;;;;;6228442;28;20050;-81
2022/10/16 03:58:02;;;;;;;9.82;1.63;;;16.80;99.90;;;;;;6102739;28;20591;-82
2022/10/16 04:01:04;;;;;;;4.55;1.10;;;16.90;99.90;;;;;;6204587;28;20133;-82
2022/10/16 04:08:34;;;;;;;10.77;1.60;;;16.70;99.90;;;;;;6106686;29;20060;-81
2022/10/16 04:11:36;;;;;;;7.90;1.30;;;16.80;99.90;;;;;;6149050;28;20472;-82
2022/10/16 04:14:38;;;;;;;7.72;1.45;;;17.20;99.90;;;;;;6207049;28;20082;-83
2022/10/16 04:17:40;;;;;;;19.73;3.05;;;16.80;99.90;;;;;;6206558;28;20049;-82
2022/10/16 04:20:42;;;;;;;3.13;0.93;;;16.80;99.90;;;;;;6206251;28;20129;-82
2022/10/16 04:23:45;;;;;;;4.68;1.25;;;17.00;99.90;;;;;;6196824;28;20062;-82
2022/10/16 04:26:46;;;;;;;9.52;1.52;;;17.10;99.90;;;;;;6204391;28;20047;-82
2022/10/16 04:33:43;;;;;;;6.18;1.58;;;17.10;99.90;;;;;;6131003;28;20058;-82
2022/10/16 05:16:47;;;;;;;2.83;1.25;;;16.80;99.90;;;;;;5972072;29;20075;-82
2022/10/16 05:19:51;;;;;;;12.00;2.25;;;16.70;99.90;;;;;;6146987;28;20121;-82
2022/10/16 05:22:56;;;;;;;9.43;1.73;;;17.20;99.90;;;;;;6179427;28;20073;-82
2022/10/16 07:30:21;;;;;;;3.17;1.70;;;18.80;99.90;;;;;;6159512;28;20089;-80
2022/10/16 07:38:22;;;;;;;4.50;2.95;;;19.20;99.90;;;;;;6057921;29;20135;-81
2022/10/16 07:41:24;;;;;;;4.95;2.22;;;19.40;99.90;;;;;;5928560;29;20059;-81
2022/10/16 07:54:55;;;;;;;13.55;2.25;;;19.80;99.90;;;;;;6260813;23;20571;-80
2022/10/16 07:57:56;;;;;;;110.18;41.45;;;19.80;99.90;;;;;;6182282;28;20054;-81
2022/10/16 08:28:00;;;;;;;3.17;0.73;;;20.40;99.90;;;;;;3412781;26;20045;-81
2022/10/16 08:53:55;;;;;;;1.77;0.88;;;21.80;99.90;;;;;;6252905;22;20088;-81
2022/10/16 08:57:01;;;;;;;5.88;2.22;;;22.00;99.90;;;;;;6250821;28;20052;-81
2022/10/16 09:00:13;;;;;;;9.27;2.70;;;22.20;99.90;;;;;;6250176;28;20049;-81
2022/10/16 09:30:04;;;;;;;25.88;4.18;;;24.30;99.90;;;;;;5475901;26;20556;-81
2022/10/16 09:33:11;;;;;;;7.03;1.40;;;24.20;99.90;;;;;;6272379;23;20054;-80
2022/10/16 09:36:36;;;;;;;12.45;4.65;;;24.00;99.90;;;;;;6209323;28;20060;-81
2022/10/16 09:39:59;;;;;;;9.73;2.65;;;24.00;99.90;;;;;;6201254;28;20046;-80
2022/10/16 09:47:42;;;;;;;5.55;0.93;;;24.50;99.90;;;;;;6139696;28;20476;-81
2022/10/16 09:51:36;;;;;;;6.18;0.90;;;24.90;99.90;;;;;;6166383;28;20046;-81
2022/10/16 09:55:12;;;;;;;7.32;0.85;;;25.20;99.80;;;;;;6176325;28;20120;-81
2022/10/16 09:58:48;;;;;;;5.50;0.90;;;25.50;98.10;;;;;;6166339;28;20097;-81
2022/10/16 10:02:18;;;;;;;6.55;0.73;;;26.00;98.70;;;;;;6178286;28;20118;-81
2022/10/16 10:05:30;;;;;;;3.08;0.50;;;26.20;96.70;;;;;;6190839;28;20050;-81
2022/10/16 10:08:39;;;;;;;9.23;5.20;;;26.50;95.90;;;;;;6199640;28;20038;-81
2022/10/16 10:12:10;;;;;;;4.38;1.42;;;26.80;95.00;;;;;;6187960;28;20073;-81
2022/10/16 10:23:22;;;;;;;8.38;3.00;;;27.90;93.10;;;;;;6714202;23;20058;-82
2022/10/16 10:26:33;;;;;;;2.17;1.20;;;28.20;91.90;;;;;;6236203;28;20065;-83
2022/10/16 10:29:53;;;;;;;4.60;0.82;;;28.50;90.60;;;;;;6235744;28;20415;-82
2022/10/16 10:33:10;;;;;;;2.08;0.40;;;28.80;88.60;;;;;;6234266;28;20065;-83
2022/10/16 10:36:21;;;;;;;4.97;0.53;;;29.20;86.80;;;;;;6234014;28;20046;-83
2022/10/16 10:39:28;;;;;;;4.45;0.68;;;29.50;84.20;;;;;;6234200;28;20064;-83
2022/10/16 11:02:26;;;;;;;2.20;0.47;;;29.70;78.20;;;;;;7245847;22;20347;-83
2022/10/16 11:05:45;;;;;;;3.03;0.65;;;29.50;77.40;;;;;;6247086;28;20051;-83
2022/10/16 11:09:00;;;;;;;6.57;0.80;;;29.10;78.60;;;;;;6260270;28;20109;-83
2022/10/16 11:12:08;;;;;;;5.95;0.95;;;28.80;79.10;;;;;;6249209;28;20100;-83
2022/10/16 11:15:15;;;;;;;2.65;0.63;;;28.60;78.80;;;;;;6234168;28;20053;-82
2022/10/16 11:18:22;;;;;;;1.42;0.63;;;28.50;79.80;;;;;;6233062;28;20427;-81
2022/10/16 11:21:25;;;;;;;2.90;1.55;;;28.50;79.80;;;;;;6233400;28;20046;-81
2022/10/16 11:24:36;;;;;;;6.32;0.88;;;28.50;80.00;;;;;;6234934;28;20061;-83
2022/10/16 11:27:40;;;;;;;1.00;0.40;;;28.60;80.10;;;;;;6238670;28;20050;-82
2022/10/16 11:30:47;;;;;;;6.00;0.60;;;28.60;77.50;;;;;;6232489;28;20042;-82
2022/10/16 11:33:55;;;;;;;3.63;0.57;;;28.70;78.40;;;;;;6231854;28;20417;-84
2022/10/16 11:37:05;;;;;;;7.93;0.95;;;28.80;76.40;;;;;;6230952;28;20058;-82
2022/10/16 11:40:20;;;;;;;19.15;6.43;;;28.70;76.20;;;;;;6233620;28;20053;-82
2022/10/16 11:43:26;;;;;;;16.33;8.45;;;28.60;75.80;;;;;;6231680;28;20053;-83
2022/10/16 11:46:31;;;;;;;7.00;3.75;;;28.60;76.10;;;;;;6215919;28;20050;-82
2022/10/16 11:49:35;;;;;;;5.13;1.75;;;28.60;75.80;;;;;;6203588;28;20057;-83
2022/10/16 11:52:46;;;;;;;5.13;1.73;;;28.40;75.40;;;;;;6230670;28;20052;-82
2022/10/16 11:55:47;;;;;;;3.70;1.05;;;28.30;74.80;;;;;;6230347;28;20512;-81
2022/10/16 11:58:57;;;;;;;3.08;1.10;;;28.10;75.20;;;;;;6231672;28;20151;-82
2022/10/16 12:02:27;;;;;;;3.25;1.15;;;28.00;74.80;;;;;;6231268;28;20058;-83
2022/10/16 12:05:37;;;;;;;1.83;0.93;;;27.60;75.00;;;;;;6228176;28;20057;-82
2022/10/16 12:08:41;;;;;;;1.05;0.50;;;27.40;76.60;;;;;;6227982;28;20518;-81
2022/10/16 12:11:43;;;;;;;5.25;1.98;;;27.20;76.80;;;;;;6228107;28;20053;-81
2022/10/16 12:14:45;;;;;;;1.65;0.55;;;27.10;77.30;;;;;;6228158;28;20061;-82
2022/10/16 12:17:47;;;;;;;2.65;0.50;;;27.10;77.80;;;;;;6228318;28;20066;-83
2022/10/16 12:20:58;;;;;;;3.58;0.63;;;27.20;78.20;;;;;;6227999;28;20046;-81
2022/10/16 12:24:04;;;;;;;8.45;0.82;;;27.10;77.50;;;;;;6228387;28;20151;-81
2022/10/16 12:27:07;;;;;;;3.63;0.50;;;27.00;77.50;;;;;;6229467;28;20050;-82
2022/10/16 12:30:22;;;;;;;0.82;0.45;;;26.90;77.20;;;;;;6228052;28;20042;-81
2022/10/16 12:33:26;;;;;;;1.83;0.40;;;26.70;77.50;;;;;;6228896;28;20060;-81
2022/10/16 12:36:30;;;;;;;2.40;0.57;;;26.50;79.50;;;;;;6216688;28;20061;-81
2022/10/16 12:39:33;;;;;;;0.60;0.60;;;26.60;80.30;;;;;;6228917;28;20050;-81
2022/10/16 12:42:35;;;;;;;1.40;0.60;;;26.60;79.30;;;;;;6228433;28;20136;-82
2022/10/16 12:45:37;;;;;;;1.08;0.57;;;26.50;79.20;;;;;;6227404;28;20054;-81
2022/10/16 12:48:40;;;;;;;2.35;0.70;;;26.50;79.40;;;;;;6227655;28;20052;-83
2022/10/16 12:51:43;;;;;;;1.25;0.63;;;26.60;78.80;;;;;;6230339;28;20423;-83
2022/10/16 12:54:47;;;;;;;1.35;0.60;;;26.60;79.20;;;;;;6229119;28;20054;-82
2022/10/16 12:58:06;;;;;;;0.90;0.57;;;26.50;78.60;;;;;;6226261;28;20042;-81
2022/10/16 13:01:19;;;;;;;5.30;0.60;;;26.40;79.30;;;;;;6229404;28;20174;-82
2022/10/16 13:04:55;;;;;;;3.42;0.82;;;26.40;80.50;;;;;;6223076;28;20049;-81
2022/10/16 13:08:21;;;;;;;0.93;0.38;;;26.50;80.70;;;;;;6217466;28;20061;-83
2022/10/16 13:11:32;;;;;;;7.40;0.60;;;26.50;82.30;;;;;;6228341;28;20411;-82
2022/10/16 13:15:16;;;;;;;5.15;0.45;;;26.40;81.20;;;;;;6226899;28;20053;-81
2022/10/16 13:18:23;;;;;;;12.35;1.30;;;26.30;82.20;;;;;;6211528;28;20058;-81
2022/10/16 13:21:35;;;;;;;3.13;0.70;;;26.20;82.70;;;;;;6225892;28;20045;-81
2022/10/16 13:24:52;;;;;;;8.00;0.63;;;26.10;83.30;;;;;;6227765;28;20057;-82
2022/10/16 13:27:59;;;;;;;1.40;0.57;;;26.10;83.70;;;;;;6229239;28;20514;-83
2022/10/16 13:31:03;;;;;;;6.75;1.25;;;26.20;84.10;;;;;;6229917;28;20319;-82
2022/10/16 13:34:06;;;;;;;2.10;0.98;;;26.20;83.60;;;;;;6238134;28;20045;-83
2022/10/16 13:37:18;;;;;;;5.20;1.92;;;26.20;83.40;;;;;;6226372;28;20061;-83
2022/10/16 13:40:22;;;;;;;3.20;1.00;;;26.10;84.00;;;;;;6229570;28;20052;-82
2022/10/16 13:43:28;;;;;;;13.45;1.55;;;26.00;84.70;;;;;;6232105;28;20057;-84
2022/10/16 13:46:34;;;;;;;3.33;0.70;;;25.90;85.10;;;;;;6230483;28;20054;-84
2022/10/16 13:49:35;;;;;;;2.65;0.85;;;25.70;86.00;;;;;;6230019;28;20046;-82
2022/10/16 13:52:37;;;;;;;7.68;2.97;;;25.50;88.10;;;;;;6228482;28;20054;-84
2022/10/16 13:55:39;;;;;;;20.48;12.68;;;25.40;89.90;;;;;;6229501;28;20611;-83
2022/10/16 13:58:43;;;;;;;7.22;2.78;;;25.30;90.40;;;;;;6228390;28;20499;-83
2022/10/16 14:01:45;;;;;;;5.85;0.85;;;25.20;91.20;;;;;;6228959;28;20053;-83
2022/10/16 14:04:48;;;;;;;4.50;1.00;;;25.10;91.60;;;;;;6228365;28;20454;-83
2022/10/16 14:07:51;;;;;;;3.58;1.05;;;25.00;92.20;;;;;;6229256;28;20057;-82
2022/10/16 14:10:56;;;;;;;5.25;0.80;;;24.90;92.80;;;;;;6228905;28;20104;-82
2022/10/16 14:13:59;;;;;;;6.63;1.27;;;24.80;93.20;;;;;;6230405;28;20050;-83
2022/10/16 14:17:01;;;;;;;3.45;1.40;;;24.70;93.50;;;;;;6229740;28;20049;-82
2022/10/16 14:20:06;;;;;;;4.97;0.90;;;24.70;94.00;;;;;;6229107;28;20141;-81
2022/10/16 14:23:21;;;;;;;13.60;0.85;;;24.80;94.50;;;;;;6235574;28;20061;-83
2022/10/16 14:26:56;;;;;;;;;;;;;;;;;;;;;
2022/10/16 15:27:48;;;;;;;17.27;1.98;;;26.70;88.70;;;;;;4585195;26;20523;-83
2022/10/16 15:49:10;;;;;;;9.70;4.05;;;25.40;91.80;;;;;;6431326;27;20492;-82
2022/10/16 16:03:53;;;;;;;8.52;1.02;;;23.50;94.30;;;;;;6397162;22;20869;-85
2022/10/16 16:07:18;;;;;;;6.40;1.30;;;23.40;95.90;;;;;;6272883;28;20049;-84
2022/10/16 16:10:21;;;;;;;8.77;2.00;;;23.40;96.60;;;;;;6274317;28;20424;-77
2022/10/16 16:13:23;;;;;;;7.82;1.45;;;21.90;99.90;;;;;;6261055;28;20428;-83
2022/10/16 16:16:25;;;;;;;6.97;1.10;;;22.10;99.90;;;;;;6289117;28;20041;-83
2022/10/16 16:20:07;;;;;;;8.63;1.00;;;22.70;99.90;;;;;;6274054;28;20100;-86
2022/10/16 16:24:10;;;;;;;4.20;1.35;;;23.10;99.60;;;;;;6406879;27;20135;-83
2022/10/16 16:27:13;;;;;;;7.55;2.30;;;22.90;99.30;;;;;;6285858;28;20418;-83
2022/10/16 16:30:15;;;;;;;9.25;1.50;;;22.80;98.80;;;;;;6300157;28;20056;-83
2022/10/16 16:33:16;;;;;;;8.93;1.20;;;22.70;98.80;;;;;;6306913;28;20049;-83
2022/10/16 16:36:19;;;;;;;4.13;0.98;;;22.50;98.90;;;;;;6314618;28;20048;-83
2022/10/16 16:39:23;;;;;;;6.00;1.02;;;22.30;99.00;;;;;;6338773;28;20051;-84
2022/10/16 16:42:25;;;;;;;5.05;0.73;;;21.90;99.30;;;;;;6321114;28;20056;-83
2022/10/16 16:45:27;;;;;;;11.15;1.30;;;21.70;99.60;;;;;;6292954;28;20041;-83
2022/10/16 16:48:29;;;;;;;7.50;1.20;;;21.60;99.80;;;;;;6293107;28;20066;-83
2022/10/16 16:51:59;;;;;;;4.32;0.95;;;21.40;99.90;;;;;;6310291;28;20063;-84
2022/10/16 16:55:02;;;;;;;11.35;1.33;;;21.20;99.90;;;;;;6318775;28;20048;-83
2022/10/16 16:58:04;;;;;;;7.72;1.88;;;21.10;99.90;;;;;;6314378;28;20049;-83
2022/10/16 17:01:07;;;;;;;4.05;1.58;;;20.90;99.90;;;;;;6295176;28;20135;-83
2022/10/16 17:04:18;;;;;;;3.95;1.20;;;20.70;99.90;;;;;;6316637;28;20611;-83
2022/10/16 17:08:01;;;;;;;7.07;1.80;;;20.60;99.90;;;;;;6303485;28;20444;-83
2022/10/16 17:14:45;;;;;;;13.13;2.13;;;20.20;99.90;;;;;;6254760;28;20110;-83
2022/10/16 17:17:46;;;;;;;5.80;1.67;;;20.00;99.90;;;;;;6269114;28;20644;-83
2022/10/16 17:23:56;;;;;;;9.23;1.70;;;19.70;99.90;;;;;;6266720;22;20045;-84
2022/10/16 17:27:14;;;;;;;5.10;1.70;;;19.60;99.90;;;;;;6234059;28;20120;-84
2022/10/16 17:33:52;;;;;;;15.90;3.67;;;19.40;99.90;;;;;;6200371;28;20046;-83
2022/10/16 17:41:17;;;;;;;10.35;3.63;;;19.10;99.90;;;;;;6160541;28;20058;-83
2022/10/16 17:44:42;;;;;;;3.47;1.58;;;19.00;99.90;;;;;;6191424;28;20125;-84
2022/10/16 17:47:45;;;;;;;6.72;2.97;;;19.00;99.90;;;;;;6190948;28;20081;-82
2022/10/16 17:50:47;;;;;;;11.68;1.88;;;18.70;99.90;;;;;;6204311;28;20050;-83
2022/10/16 17:54:03;;;;;;;7.78;2.28;;;18.70;99.90;;;;;;6227360;28;20064;-83
2022/10/16 17:57:05;;;;;;;13.77;2.17;;;18.70;99.90;;;;;;6228882;28;20487;-82
2022/10/16 18:00:09;;;;;;;13.13;4.65;;;18.70;99.90;;;;;;6228141;28;20124;-83
2022/10/16 18:03:29;;;;;;;11.45;1.40;;;18.60;99.90;;;;;;6226769;28;20049;-84
2022/10/16 18:06:33;;;;;;;5.45;1.63;;;18.60;99.90;;;;;;6210708;28;20089;-83
2022/10/16 18:09:35;;;;;;;34.85;14.75;;;18.50;99.90;;;;;;6201327;28;20054;-83
2022/10/16 18:12:49;;;;;;;17.02;7.30;;;18.50;99.90;;;;;;6182100;28;20066;-83
2022/10/16 18:16:00;;;;;;;7.22;2.40;;;18.50;99.90;;;;;;6213299;28;20450;-84
2022/10/16 18:19:02;;;;;;;16.92;10.30;;;18.30;99.90;;;;;;6228033;28;20057;-83
2022/10/16 18:22:04;;;;;;;7.85;2.38;;;18.40;99.90;;;;;;6226669;28;20053;-83
2022/10/16 18:25:09;;;;;;;17.95;4.85;;;18.30;99.90;;;;;;6227111;28;20054;-83
2022/10/16 18:28:11;;;;;;;11.73;3.78;;;18.20;99.90;;;;;;6225404;28;20053;-83
2022/10/16 18:31:16;;;;;;;18.52;2.65;;;18.10;99.90;;;;;;6225904;28;20053;-83
2022/10/16 18:34:18;;;;;;;6.30;2.47;;;18.00;99.90;;;;;;6214367;28;20062;-83
2022/10/16 18:37:37;;;;;;;11.18;2.90;;;18.00;99.90;;;;;;6239552;28;20138;-84
2022/10/16 18:40:50;;;;;;;10.23;3.58;;;18.00;99.90;;;;;;6225715;28;20053;-83
2022/10/16 18:43:52;;;;;;;13.02;2.10;;;17.80;99.90;;;;;;6203123;28;20053;-83
2022/10/16 18:46:56;;;;;;;8.23;2.10;;;17.70;99.90;;;;;;6205127;28;20518;-83
2022/10/16 18:49:58;;;;;;;21.73;6.80;;;17.70;99.90;;;;;;6201625;28;20054;-83
2022/10/16 18:53:04;;;;;;;10.77;3.38;;;17.60;99.90;;;;;;6207324;28;20062;-83
2022/10/16 18:56:08;;;;;;;17.92;4.75;;;17.60;99.90;;;;;;6201720;28;20047;-83
2022/10/16 18:59:13;;;;;;;7.43;4.28;;;17.60;99.90;;;;;;6200052;28;20074;-83
2022/10/16 19:07:24;;;;;;;9.35;3.10;;;17.50;99.90;;;;;;6204041;28;20046;-83
2022/10/16 19:22:26;;;;;;;14.35;3.88;;;17.50;99.90;;;;;;6275865;28;20049;-82
2022/10/16 19:25:28;;;;;;;13.55;4.60;;;17.60;99.90;;;;;;6279124;28;20049;-83
2022/10/16 19:28:50;;;;;;;11.32;4.22;;;17.70;99.90;;;;;;6278222;28;20102;-82
2022/10/16 19:31:52;;;;;;;9.57;3.83;;;17.50;99.90;;;;;;6279198;28;20527;-83
2022/10/16 19:34:55;;;;;;;11.82;3.72;;;17.60;99.90;;;;;;6277953;28;20045;-83
2022/10/16 19:37:57;;;;;;;19.00;3.67;;;17.50;99.90;;;;;;6280443;28;20403;-83
2022/10/16 19:41:05;;;;;;;8.10;3.47;;;17.50;99.90;;;;;;6280570;28;20461;-82
2022/10/16 19:44:11;;;;;;;20.38;3.40;;;17.40;99.90;;;;;;6277467;28;20048;-83
2022/10/16 19:47:12;;;;;;;10.65;3.45;;;17.50;99.90;;;;;;6277467;28;20059;-83
2022/10/16 19:50:15;;;;;;;8.52;2.97;;;17.30;99.90;;;;;;6278968;28;20410;-83
2022/10/16 19:53:17;;;;;;;23.25;4.05;;;17.30;99.90;;;;;;6278678;28;20041;-82
2022/10/16 19:56:22;;;;;;;17.42;3.30;;;17.20;99.90;;;;;;6278558;28;20560;-84
2022/10/16 19:59:25;;;;;;;13.30;3.05;;;17.20;99.90;;;;;;6277048;28;20048;-84
2022/10/16 20:02:27;;;;;;;13.88;2.95;;;17.10;99.90;;;;;;6277730;28;20049;-82
2022/10/16 20:05:29;;;;;;;18.20;3.20;;;17.10;99.90;;;;;;6276389;28;20068;-82
2022/10/16 20:08:30;;;;;;;13.50;2.80;;;17.00;99.90;;;;;;6276221;28;20526;-82
2022/10/16 20:11:34;;;;;;;18.27;3.78;;;17.00;99.90;;;;;;6266079;28;20063;-84
2022/10/16 20:50:50;;;;;;;7.43;3.30;;;16.10;99.90;;;;;;6246857;28;20049;-82
2022/10/16 21:10:13;;;;;;;7.18;2.33;;;15.70;99.90;;;;;;6185708;28;20058;-83
2022/10/16 21:52:57;;;;;;;11.13;2.60;;;15.20;99.90;;;;;;5949809;29;20053;-84
2022/10/16 22:08:54;;;;;;;22.60;3.25;;;15.10;99.90;;;;;;6048049;29;20057;-82
2022/10/16 22:15:55;;;;;;;14.85;2.83;;;15.30;99.90;;;;;;6175342;28;20050;-81
2022/10/16 22:57:55;;;;;;;21.45;3.65;;;14.80;99.90;;;;;;6213601;28;20081;-83
2022/10/16 23:00:57;;;;;;;10.65;3.28;;;15.00;99.90;;;;;;6214652;28;20046;-82
2022/10/16 23:04:00;;;;;;;13.45;2.10;;;15.00;99.90;;;;;;6225197;28;20192;-83
2022/10/16 23:07:01;;;;;;;22.67;3.30;;;15.10;99.90;;;;;;6224449;28;20129;-83
2022/10/16 23:10:03;;;;;;;29.48;5.05;;;14.70;99.90;;;;;;6224641;28;20131;-83
2022/10/16 23:13:52;;;;;;;;;;;;;;;;;;;;;
2022/10/16 23:28:51;;;;;;;12.43;2.55;;;14.60;99.90;;;;;;6005495;29;20053;-84
2022/10/16 23:32:16;;;;;;;9.70;2.15;;;14.70;99.90;;;;;;6094514;28;20595;-84
2022/10/16 23:35:29;;;;;;;7.55;3.38;;;14.50;99.90;;;;;;6174434;28;20189;-84
2022/10/16 23:39:02;;;;;;;21.27;4.50;;;14.50;99.90;;;;;;6224291;28;20052;-84
2022/10/16 23:45:50;;;;;;;9.23;2.88;;;14.30;99.90;;;;;;6192252;28;20038;-84
2022/10/16 23:48:55;;;;;;;11.60;2.75;;;14.30;99.90;;;;;;6220887;28;20053;-83
2022/10/16 23:52:46;;;;;;;13.85;3.63;;;14.50;99.90;;;;;;6228570;28;20057;-84
2022/10/16 23:55:48;;;;;;;13.02;3.00;;;14.30;99.90;;;;;;6242366;28;20052;-84
2022/10/16 23:58:50;;;;;;;9.48;2.88;;;14.60;99.90;;;;;;6254949;28;20057;-84
